Time;durP1;ratioP1;P1;durP2;ratioP2;P2;SDS_P1;SDS_P2;PMS_P1;PMS_P2;Temp;Humidity;BMP_temperature;BMP_pressure;BME280_temperature;BME280_humidity;BME280_pressure;Samples;Min_cycle;Max_cycle;Signal;HPM_P1;HPM_P2
2021/03/02 00:00:00;;;;;;;9.95;4.15;;;3.90;1.00;;;;;;5055446;28;20162;-75
2021/03/02 00:02:26;;;;;;;8.45;4.72;;;3.90;1.00;;;;;;5055546;28;20152;-75
2021/03/02 00:04:52;;;;;;;9.15;4.97;;;3.90;1.00;;;;;;5055770;28;20148;-75
2021/03/02 00:07:47;;;;;;;13.13;4.57;;;3.90;1.00;;;;;;5054468;28;20297;-75
2021/03/02 00:10:13;;;;;;;10.02;4.53;;;3.90;1.00;;;;;;5055406;28;20170;-75
2021/03/02 00:12:51;;;;;;;9.87;4.60;;;3.90;1.00;;;;;;5055281;28;20160;-75
2021/03/02 00:15:23;;;;;;;9.68;4.93;;;3.90;1.00;;;;;;5055381;28;20251;-75
2021/03/02 00:17:51;;;;;;;15.75;4.35;;;3.90;1.00;;;;;;5055091;28;20599;-75
2021/03/02 00:20:24;;;;;;;8.95;4.30;;;3.90;1.00;;;;;;5053955;28;20202;-71
2021/03/02 00:22:57;;;;;;;8.82;4.18;;;3.90;1.00;;;;;;5036693;28;20491;-71
2021/03/02 00:25:28;;;;;;;14.52;4.72;;;3.80;1.00;;;;;;5034799;28;20161;-71
2021/03/02 00:27:55;;;;;;;15.05;5.47;;;3.90;1.00;;;;;;5034418;28;20219;-71
2021/03/02 00:30:21;;;;;;;15.88;5.68;;;3.90;1.00;;;;;;5034591;28;20164;-71
2021/03/02 00:32:47;;;;;;;11.55;5.35;;;3.90;1.00;;;;;;5034738;28;20522;-71
2021/03/02 00:35:14;;;;;;;9.77;4.43;;;3.90;1.00;;;;;;5033469;28;20511;-71
2021/03/02 00:37:40;;;;;;;9.07;5.05;;;;;;;;;;5031735;28;20732;-71
2021/03/02 00:40:07;;;;;;;8.93;5.05;;;3.90;1.00;;;;;;5054127;28;20207;-71
2021/03/02 00:42:33;;;;;;;8.88;4.72;;;3.90;1.00;;;;;;5051148;28;20172;-71
2021/03/02 00:44:59;;;;;;;8.20;4.13;;;;;;;;;;5054275;28;20163;-71
2021/03/02 00:47:25;;;;;;;10.27;5.40;;;3.90;1.00;;;;;;5054149;28;20423;-71
2021/03/02 00:49:51;;;;;;;8.23;4.83;;;3.90;1.00;;;;;;5052918;28;20657;-71
2021/03/02 00:52:17;;;;;;;8.03;5.00;;;;;;;;;;5054128;28;20186;-76
2021/03/02 00:54:47;;;;;;;14.05;5.82;;;3.90;1.00;;;;;;5054484;28;20933;-75
2021/03/02 00:57:23;;;;;;;12.05;4.90;;;3.90;1.00;;;;;;5054224;28;20192;-76
2021/03/02 00:59:49;;;;;;;12.93;6.10;;;4.00;1.00;;;;;;5054547;28;20166;-76
2021/03/02 01:02:30;;;;;;;15.63;4.73;;;;;;;;;;5054333;28;20161;-75
2021/03/02 01:04:56;;;;;;;14.88;5.75;;;;;;;;;;5054293;28;20600;-75
2021/03/02 01:07:29;;;;;;;9.70;4.55;;;3.90;1.00;;;;;;5054019;28;20195;-76
2021/03/02 01:09:55;;;;;;;9.30;4.50;;;3.80;1.00;;;;;;5054180;28;20230;-75
2021/03/02 01:12:28;;;;;;;13.20;5.00;;;3.80;1.00;;;;;;5054361;28;20198;-75
2021/03/02 01:15:01;;;;;;;5.55;3.88;;;3.80;1.00;;;;;;5053857;28;20407;-75
2021/03/02 01:17:53;;;;;;;9.60;4.05;;;3.80;1.00;;;;;;5054086;28;20194;-75
2021/03/02 01:20:19;;;;;;;8.90;3.78;;;3.70;1.00;;;;;;5052922;28;20164;-75
2021/03/02 01:22:45;;;;;;;9.13;4.90;;;;;;;;;;5054095;28;20152;-71
2021/03/02 01:25:12;;;;;;;16.05;5.30;;;3.70;1.00;;;;;;5053633;28;20616;-72
2021/03/02 01:27:39;;;;;;;5.82;3.92;;;3.70;1.00;;;;;;5046050;28;20286;-72
2021/03/02 01:30:10;;;;;;;13.93;5.05;;;3.70;1.00;;;;;;5033794;28;20685;-72
2021/03/02 01:32:36;;;;;;;7.88;4.20;;;;;;;;;;5033686;28;20601;-71
2021/03/02 01:35:09;;;;;;;10.30;5.38;;;3.70;1.00;;;;;;5033076;28;20199;-71
2021/03/02 01:37:35;;;;;;;11.18;4.97;;;3.70;1.00;;;;;;5034751;28;20234;-75
2021/03/02 01:40:09;;;;;;;10.00;3.80;;;3.60;1.00;;;;;;5043047;28;20589;-75
2021/03/02 01:42:35;;;;;;;7.35;3.40;;;3.60;1.00;;;;;;5053429;28;20448;-75
2021/03/02 01:45:01;;;;;;;8.03;3.60;;;;;;;;;;5053785;28;20651;-75
2021/03/02 01:47:29;;;;;;;7.72;3.50;;;3.50;1.00;;;;;;5053696;28;20431;-75
2021/03/02 01:50:07;;;;;;;8.75;3.97;;;3.50;1.00;;;;;;5047421;28;20199;-76
2021/03/02 01:52:35;;;;;;;8.10;4.32;;;3.40;1.00;;;;;;5033899;28;20164;-77
2021/03/02 01:55:07;;;;;;;9.93;4.75;;;3.40;1.00;;;;;;5049947;28;20188;-75
2021/03/02 01:57:33;;;;;;;7.07;3.17;;;3.40;1.00;;;;;;5053458;28;20283;-75
2021/03/02 02:00:03;;;;;;;5.83;3.23;;;3.30;1.00;;;;;;5053698;28;20251;-75
2021/03/02 02:02:40;;;;;;;7.93;3.95;;;3.30;1.00;;;;;;5052605;28;20468;-75
2021/03/02 02:05:26;;;;;;;7.32;3.90;;;3.40;1.00;;;;;;5053054;28;20172;-75
2021/03/02 02:07:56;;;;;;;7.75;3.47;;;3.30;1.00;;;;;;5053534;28;20159;-71
2021/03/02 02:10:22;;;;;;;9.20;3.80;;;3.30;1.00;;;;;;5054786;28;20516;-71
2021/03/02 02:12:53;;;;;;;6.30;3.37;;;3.30;1.00;;;;;;5055537;28;20274;-71
2021/03/02 02:15:29;;;;;;;5.25;3.03;;;3.20;1.00;;;;;;5057132;28;20195;-71
2021/03/02 02:18:16;;;;;;;8.20;3.45;;;3.20;1.00;;;;;;5049629;28;20196;-71
2021/03/02 02:21:01;;;;;;;10.10;3.60;;;3.20;1.00;;;;;;5036379;28;20160;-71
2021/03/02 02:23:53;;;;;;;10.50;3.35;;;3.10;1.00;;;;;;5043368;28;20616;-76
2021/03/02 02:26:43;;;;;;;8.10;3.55;;;3.10;1.00;;;;;;5044521;28;20195;-75
2021/03/02 02:29:22;;;;;;;5.68;3.15;;;3.10;1.00;;;;;;5057245;28;20213;-75
2021/03/02 02:31:49;;;;;;;5.38;2.78;;;3.00;1.00;;;;;;5056574;28;20156;-75
2021/03/02 02:34:19;;;;;;;7.60;3.40;;;2.90;1.00;;;;;;5036111;28;20551;-76
2021/03/02 02:36:50;;;;;;;6.88;3.10;;;2.90;1.00;;;;;;5037418;28;20157;-72
2021/03/02 02:39:17;;;;;;;6.43;2.75;;;2.80;1.00;;;;;;5035415;28;20203;-71
2021/03/02 02:41:48;;;;;;;9.40;3.47;;;2.80;1.00;;;;;;5052624;28;20187;-71
2021/03/02 02:44:15;;;;;;;5.30;2.83;;;2.70;1.00;;;;;;5047675;28;20176;-71
2021/03/02 02:46:41;;;;;;;5.22;3.47;;;;;;;;;;5056143;28;20187;-72
2021/03/02 02:49:10;;;;;;;4.47;2.95;;;2.50;1.00;;;;;;5056518;28;20508;-71
2021/03/02 02:51:37;;;;;;;10.60;3.17;;;2.50;1.00;;;;;;5056834;28;20167;-72
2021/03/02 02:54:07;;;;;;;3.10;2.60;;;2.40;1.00;;;;;;5056205;28;20179;-72
2021/03/02 02:56:37;;;;;;;4.80;2.85;;;2.40;1.00;;;;;;5056296;28;20217;-71
2021/03/02 02:59:24;;;;;;;7.32;2.90;;;2.30;1.00;;;;;;5056166;28;20206;-71
2021/03/02 03:01:57;;;;;;;2.47;2.08;;;2.30;1.00;;;;;;5055503;28;20178;-71
2021/03/02 03:04:30;;;;;;;12.32;3.17;;;2.30;1.00;;;;;;5055818;28;20195;-71
2021/03/02 03:07:03;;;;;;;14.45;3.65;;;2.20;1.00;;;;;;5056725;28;20213;-75
2021/03/02 03:09:29;;;;;;;7.45;3.67;;;2.20;1.00;;;;;;5056448;28;20256;-75
2021/03/02 03:12:01;;;;;;;9.30;3.53;;;2.10;1.00;;;;;;5056118;28;20643;-75
2021/03/02 03:14:31;;;;;;;4.60;2.33;;;2.10;1.00;;;;;;5056552;28;20168;-75
2021/03/02 03:17:00;;;;;;;5.60;3.30;;;2.10;1.00;;;;;;5056106;28;20237;-75
2021/03/02 03:19:28;;;;;;;5.68;3.30;;;2.00;1.00;;;;;;5056028;28;20182;-75
2021/03/02 03:21:54;;;;;;;15.02;4.25;;;2.00;1.00;;;;;;5055175;28;20183;-76
2021/03/02 03:24:21;;;;;;;4.90;2.17;;;2.00;1.00;;;;;;5045306;28;20169;-75
2021/03/02 03:27:00;;;;;;;6.90;2.58;;;1.90;1.00;;;;;;5036274;28;20227;-75
2021/03/02 03:29:27;;;;;;;4.15;2.80;;;1.90;1.00;;;;;;5036223;28;20263;-75
2021/03/02 03:32:17;;;;;;;6.82;3.28;;;2.00;1.00;;;;;;5036345;28;20203;-75
2021/03/02 03:35:01;;;;;;;8.38;2.88;;;2.00;1.00;;;;;;5036114;28;20161;-75
2021/03/02 03:37:27;;;;;;;11.35;3.63;;;2.00;1.00;;;;;;5036439;28;20196;-76
2021/03/02 03:39:52;;;;;;;10.10;3.70;;;2.10;1.00;;;;;;5040841;28;20608;-75
2021/03/02 03:42:23;;;;;;;5.53;2.73;;;2.10;1.00;;;;;;5038127;28;20184;-75
2021/03/02 03:45:06;;;;;;;5.13;3.67;;;2.10;1.00;;;;;;5036018;28;20179;-75
2021/03/02 03:47:33;;;;;;;8.57;2.80;;;2.20;1.00;;;;;;5035852;28;20500;-76
2021/03/02 03:49:59;;;;;;;5.70;2.50;;;2.20;1.00;;;;;;5035849;28;20164;-75
2021/03/02 03:52:31;;;;;;;11.52;4.43;;;2.20;1.00;;;;;;5036115;28;20224;-75
2021/03/02 03:55:07;;;;;;;11.55;4.07;;;2.30;1.00;;;;;;5052485;28;20175;-75
2021/03/02 03:57:48;;;;;;;3.45;2.85;;;2.30;1.00;;;;;;5055545;28;20652;-75
2021/03/02 04:00:19;;;;;;;6.50;3.85;;;2.30;1.00;;;;;;5054770;28;20544;-76
2021/03/02 04:02:49;;;;;;;3.58;2.72;;;2.40;1.00;;;;;;5055641;28;20152;-76
2021/03/02 04:05:19;;;;;;;7.30;3.25;;;2.40;1.00;;;;;;5055553;28;20152;-75
2021/03/02 04:07:46;;;;;;;5.80;3.22;;;2.40;1.00;;;;;;5055525;28;20164;-72
2021/03/02 04:10:14;;;;;;;6.72;3.35;;;2.40;1.00;;;;;;5053573;28;20171;-71
2021/03/02 04:12:45;;;;;;;9.63;3.60;;;2.40;1.00;;;;;;5048442;28;20176;-72
2021/03/02 04:15:13;;;;;;;6.00;3.60;;;2.40;1.00;;;;;;5034814;28;20171;-72
2021/03/02 04:17:40;;;;;;;5.53;2.40;;;2.40;1.00;;;;;;5034885;28;20200;-71
2021/03/02 04:20:06;;;;;;;5.35;3.50;;;2.40;1.00;;;;;;5034666;28;20156;-71
2021/03/02 04:22:37;;;;;;;7.60;3.28;;;2.40;1.00;;;;;;5035034;28;20172;-75
2021/03/02 04:25:06;;;;;;;6.55;3.17;;;2.40;1.00;;;;;;5035134;28;20164;-75
2021/03/02 04:27:32;;;;;;;7.20;3.33;;;2.30;1.00;;;;;;5034846;28;20183;-75
2021/03/02 04:30:00;;;;;;;5.10;3.47;;;2.30;1.00;;;;;;5035044;28;20203;-75
2021/03/02 04:32:35;;;;;;;5.32;3.25;;;2.40;1.00;;;;;;5034759;28;20803;-75
2021/03/02 04:35:01;;;;;;;10.90;3.50;;;2.40;1.00;;;;;;5035644;28;20172;-75
2021/03/02 04:37:37;;;;;;;6.37;3.33;;;2.40;1.00;;;;;;5055393;28;20183;-75
2021/03/02 04:40:07;;;;;;;5.82;3.45;;;2.40;1.00;;;;;;5052392;28;20386;-75
2021/03/02 04:43:05;;;;;;;3.33;2.50;;;2.40;1.00;;;;;;5042491;28;20180;-75
2021/03/02 04:45:31;;;;;;;4.68;2.25;;;2.30;1.00;;;;;;5034659;28;20173;-76
2021/03/02 04:48:00;;;;;;;6.10;2.97;;;2.30;1.00;;;;;;5034845;28;20666;-76
2021/03/02 04:50:25;;;;;;;4.20;3.22;;;2.20;1.00;;;;;;5034552;28;20168;-75
2021/03/02 04:52:51;;;;;;;10.80;3.30;;;2.30;1.00;;;;;;5035031;28;20171;-72
2021/03/02 04:55:17;;;;;;;9.17;3.77;;;;;;;;;;5053858;28;20179;-71
2021/03/02 04:57:43;;;;;;;7.22;4.03;;;2.20;1.00;;;;;;5053111;28;20266;-72
2021/03/02 05:00:12;;;;;;;7.97;4.07;;;2.20;1.00;;;;;;5052495;28;20272;-72
2021/03/02 05:02:38;;;;;;;7.35;3.58;;;2.10;1.00;;;;;;5053911;28;20237;-72
2021/03/02 05:05:05;;;;;;;8.43;4.50;;;;;;;;;;5053765;28;20182;-72
2021/03/02 05:07:31;;;;;;;5.30;3.22;;;;;;;;;;5054303;28;20188;-75
2021/03/02 05:09:57;;;;;;;7.50;3.35;;;;;;;;;;5053977;28;20175;-72
2021/03/02 05:12:23;;;;;;;6.57;4.00;;;2.10;1.00;;;;;;5053859;28;20160;-72
2021/03/02 05:15:00;;;;;;;9.23;3.72;;;2.10;1.00;;;;;;5052191;28;20195;-73
2021/03/02 05:17:25;;;;;;;9.70;4.50;;;2.00;1.00;;;;;;5051653;28;20591;-73
2021/03/02 05:19:51;;;;;;;8.20;4.27;;;;;;;;;;5033740;28;20243;-73
2021/03/02 05:22:17;;;;;;;5.68;3.05;;;2.00;1.00;;;;;;5034007;28;20918;-73
2021/03/02 05:25:00;;;;;;;10.93;4.27;;;1.90;1.00;;;;;;5034746;28;20164;-80
2021/03/02 05:31:05;;;;;;;8.35;4.30;;;2.00;1.00;;;;;;5034021;28;20242;-84
2021/03/02 05:34:05;;;;;;;7.80;3.78;;;1.90;1.00;;;;;;5033842;28;20719;-84
2021/03/02 05:36:36;;;;;;;3.75;3.05;;;1.80;1.00;;;;;;5032801;28;20200;-76
2021/03/02 05:39:02;;;;;;;11.57;4.15;;;1.80;1.00;;;;;;5034109;28;20192;-72
2021/03/02 05:41:28;;;;;;;4.15;2.95;;;1.70;1.00;;;;;;5032822;28;20228;-71
2021/03/02 05:43:55;;;;;;;7.28;4.00;;;1.80;1.00;;;;;;5035322;28;20227;-71
2021/03/02 05:46:25;;;;;;;7.13;3.40;;;1.70;1.00;;;;;;5052703;28;20254;-72
2021/03/02 05:48:54;;;;;;;5.03;3.40;;;1.70;1.00;;;;;;5053269;28;20203;-72
2021/03/02 05:51:24;;;;;;;7.90;4.57;;;1.60;1.00;;;;;;5052161;28;20198;-71
2021/03/02 05:53:50;;;;;;;7.80;3.30;;;1.60;1.00;;;;;;5053496;28;20614;-71
2021/03/02 05:56:16;;;;;;;8.57;3.53;;;1.60;1.00;;;;;;5053379;28;20583;-72
2021/03/02 05:58:42;;;;;;;7.97;4.30;;;;;;;;;;5048361;28;20187;-71
2021/03/02 06:01:07;;;;;;;5.53;3.78;;;1.50;1.00;;;;;;5053370;28;20160;-72
2021/03/02 06:03:37;;;;;;;6.37;3.77;;;1.50;1.00;;;;;;5051916;28;20167;-71
2021/03/02 06:06:04;;;;;;;8.63;3.72;;;1.50;1.00;;;;;;5053211;28;20156;-71
2021/03/02 06:08:35;;;;;;;8.80;3.63;;;1.40;1.00;;;;;;5053453;28;20609;-76
2021/03/02 06:11:30;;;;;;;6.43;3.50;;;1.50;1.00;;;;;;5054003;28;20507;-76
2021/03/02 06:14:21;;;;;;;9.02;3.10;;;1.40;1.00;;;;;;5044911;28;20179;-76
2021/03/02 06:17:00;;;;;;;15.20;4.30;;;1.40;1.00;;;;;;5053538;28;20210;-76
2021/03/02 06:19:47;;;;;;;8.27;2.75;;;1.40;1.00;;;;;;5053249;28;20187;-76
2021/03/02 06:22:35;;;;;;;8.02;3.40;;;1.40;1.00;;;;;;5053630;28;20168;-76
2021/03/02 06:25:29;;;;;;;5.75;3.45;;;1.40;1.00;;;;;;5053665;28;20683;-76
2021/03/02 06:28:00;;;;;;;9.02;3.63;;;1.40;1.00;;;;;;5050931;28;20187;-76
2021/03/02 06:30:25;;;;;;;12.00;3.65;;;1.40;1.00;;;;;;5050716;28;20211;-76
2021/03/02 06:33:16;;;;;;;7.77;4.20;;;1.40;1.00;;;;;;5048713;28;20183;-76
2021/03/02 06:35:43;;;;;;;9.07;4.32;;;1.40;1.00;;;;;;5047914;28;20758;-76
2021/03/02 06:38:44;;;;;;;10.82;3.78;;;1.50;1.00;;;;;;5051409;28;20192;-75
2021/03/02 06:41:20;;;;;;;7.57;3.22;;;1.50;1.00;;;;;;5030440;28;20235;-71
2021/03/02 06:43:48;;;;;;;7.32;3.28;;;1.50;1.00;;;;;;5028605;28;20230;-72
2021/03/02 06:46:14;;;;;;;7.20;3.47;;;1.60;1.00;;;;;;5030635;28;20179;-71
2021/03/02 06:48:53;;;;;;;10.77;4.93;;;1.60;1.00;;;;;;5030492;28;20221;-71
2021/03/02 06:51:30;;;;;;;5.18;3.40;;;1.60;1.00;;;;;;5027155;28;20583;-72
2021/03/02 06:54:17;;;;;;;11.35;4.45;;;1.60;1.00;;;;;;5014215;28;20180;-72
2021/03/02 06:56:44;;;;;;;4.53;3.50;;;1.60;1.00;;;;;;5032628;28;20184;-72
2021/03/02 06:59:17;;;;;;;7.70;3.75;;;1.60;1.00;;;;;;5017043;28;20704;-72
2021/03/02 07:01:45;;;;;;;14.20;4.35;;;1.70;1.00;;;;;;5033956;28;20188;-72
2021/03/02 07:04:18;;;;;;;21.50;3.95;;;1.80;1.00;;;;;;5033894;28;20169;-71
2021/03/02 07:06:46;;;;;;;8.52;4.38;;;1.80;1.00;;;;;;5033614;28;20179;-72
2021/03/02 07:09:15;;;;;;;7.13;3.20;;;;;;;;;;5034132;28;20200;-72
2021/03/02 07:11:41;;;;;;;10.52;4.65;;;2.00;1.00;;;;;;5033813;28;20167;-72
2021/03/02 07:14:11;;;;;;;19.10;4.50;;;2.00;1.00;;;;;;5033243;28;20696;-72
2021/03/02 07:16:47;;;;;;;11.80;4.07;;;2.10;1.00;;;;;;5039159;28;20455;-72
2021/03/02 07:19:21;;;;;;;8.88;4.80;;;2.20;1.00;;;;;;5054709;28;20180;-71
2021/03/02 07:21:54;;;;;;;8.40;3.95;;;2.30;1.00;;;;;;5035959;28;20175;-72
2021/03/02 07:24:26;;;;;;;8.18;3.40;;;2.40;1.00;;;;;;5038357;28;20187;-72
2021/03/02 07:26:53;;;;;;;11.68;3.30;;;2.50;1.00;;;;;;5040078;28;20160;-72
2021/03/02 07:29:19;;;;;;;8.88;3.30;;;2.60;1.00;;;;;;5040982;28;20175;-73
2021/03/02 07:31:45;;;;;;;10.30;5.10;;;;;;;;;;5055666;28;20166;-72
2021/03/02 07:34:12;;;;;;;11.15;5.32;;;2.80;1.00;;;;;;5052926;28;20168;-71
2021/03/02 07:36:42;;;;;;;20.08;5.15;;;2.90;1.00;;;;;;5035565;28;20622;-72
2021/03/02 07:39:24;;;;;;;11.20;4.20;;;3.10;1.00;;;;;;5035935;28;20198;-76
2021/03/02 07:42:22;;;;;;;14.63;6.10;;;3.20;1.00;;;;;;5035994;28;20629;-76
2021/03/02 07:45:04;;;;;;;10.50;4.57;;;3.30;1.00;;;;;;5043118;28;20237;-76
2021/03/02 07:47:49;;;;;;;20.52;6.28;;;3.50;1.00;;;;;;5043551;28;20172;-76
2021/03/02 07:50:29;;;;;;;12.40;6.05;;;3.50;1.00;;;;;;5055424;28;20518;-78
2021/03/02 07:53:18;;;;;;;19.15;7.88;;;4.80;1.00;;;;;;5043409;28;20168;-76
2021/03/02 07:55:45;;;;;;;18.08;7.53;;;;;;;;;;5054953;28;20179;-76
2021/03/02 07:58:15;;;;;;;18.92;8.95;;;;;;;;;;5051836;28;20192;-76
2021/03/02 08:00:42;;;;;;;33.28;8.55;;;5.00;1.00;;;;;;5045582;28;20262;-77
2021/03/02 08:03:28;;;;;;;17.73;6.63;;;5.10;1.00;;;;;;5052219;28;20237;-76
2021/03/02 08:05:59;;;;;;;17.75;7.90;;;5.20;1.00;;;;;;5044439;28;20652;-76
2021/03/02 08:08:25;;;;;;;31.98;6.18;;;;;;;;;;5041490;28;20190;-77
2021/03/02 08:10:51;;;;;;;21.63;7.70;;;;;;;;;;5052335;28;20175;-72
2021/03/02 08:13:38;;;;;;;14.93;7.23;;;5.50;1.00;;;;;;5053132;28;20916;-72
2021/03/02 08:16:06;;;;;;;12.20;6.57;;;5.60;1.00;;;;;;5032899;28;20977;-72
2021/03/02 08:18:38;;;;;;;12.80;6.70;;;5.70;1.00;;;;;;5033604;28;20439;-72
2021/03/02 08:21:17;;;;;;;13.93;6.75;;;5.80;1.00;;;;;;5045009;28;20180;-72
2021/03/02 08:23:59;;;;;;;12.38;6.50;;;5.90;1.00;;;;;;5047315;28;20160;-72
2021/03/02 08:26:35;;;;;;;15.97;6.40;;;6.00;1.00;;;;;;5033802;28;20168;-72
2021/03/02 08:29:27;;;;;;;12.00;5.33;;;6.10;1.00;;;;;;5042799;28;20826;-72
2021/03/02 08:31:53;;;;;;;14.10;6.83;;;;;;;;;;5033608;28;20954;-72
2021/03/02 08:34:20;;;;;;;11.50;5.57;;;6.40;1.00;;;;;;5033802;28;20391;-72
2021/03/02 08:36:50;;;;;;;12.23;6.27;;;6.40;1.00;;;;;;5033344;28;20411;-72
2021/03/02 08:39:18;;;;;;;12.80;5.37;;;6.50;1.00;;;;;;5032461;28;20819;-72
2021/03/02 08:41:46;;;;;;;12.80;5.63;;;6.70;1.00;;;;;;5033823;28;20402;-72
2021/03/02 08:44:22;;;;;;;10.73;5.47;;;6.90;1.00;;;;;;5032583;28;20461;-72
2021/03/02 08:46:55;;;;;;;11.27;5.47;;;7.00;1.00;;;;;;5032596;28;20437;-72
2021/03/02 08:49:23;;;;;;;11.83;5.70;;;7.10;1.00;;;;;;5033582;28;20392;-72
2021/03/02 08:51:49;;;;;;;16.70;5.47;;;;;;;;;;5053299;28;20899;-72
2021/03/02 08:54:15;;;;;;;11.77;5.37;;;;;;;;;;5052593;28;20394;-72
2021/03/02 08:56:41;;;;;;;17.40;6.57;;;;;;;;;;5033639;28;20419;-72
2021/03/02 08:59:12;;;;;;;9.20;4.93;;;7.60;1.00;;;;;;5038355;28;20551;-72
2021/03/02 09:01:39;;;;;;;18.13;6.30;;;7.70;1.00;;;;;;5042058;28;20489;-72
2021/03/02 09:04:16;;;;;;;12.40;5.80;;;7.80;1.00;;;;;;5040804;28;20435;-72
2021/03/02 09:06:49;;;;;;;11.67;5.40;;;7.80;1.00;;;;;;5052496;28;20410;-72
2021/03/02 09:09:24;;;;;;;10.30;5.07;;;7.90;1.00;;;;;;5052960;28;20582;-72
2021/03/02 09:11:59;;;;;;;8.53;4.97;;;8.00;1.00;;;;;;5038964;28;20526;-72
2021/03/02 09:14:29;;;;;;;10.13;5.03;;;8.10;1.00;;;;;;5042142;28;20766;-72
2021/03/02 09:16:59;;;;;;;13.67;5.13;;;8.20;1.00;;;;;;5051650;28;20406;-72
2021/03/02 09:19:25;;;;;;;16.47;5.70;;;;;;;;;;5055716;28;20405;-72
2021/03/02 09:22:03;;;;;;;13.03;5.70;;;8.40;1.00;;;;;;5054340;28;20513;-72
2021/03/02 09:24:36;;;;;;;11.10;4.97;;;8.50;1.00;;;;;;5051405;28;20992;-72
2021/03/02 09:27:04;;;;;;;14.77;5.57;;;8.60;1.00;;;;;;5035513;28;20431;-72
2021/03/02 09:29:33;;;;;;;12.57;5.67;;;8.80;1.00;;;;;;5032437;28;20488;-72
2021/03/02 09:32:03;;;;;;;12.30;6.03;;;8.90;1.00;;;;;;5032865;28;20408;-72
2021/03/02 09:34:37;;;;;;;13.70;5.80;;;8.90;1.00;;;;;;5032802;28;20391;-72
2021/03/02 09:37:05;;;;;;;10.37;4.83;;;9.00;1.00;;;;;;5032492;28;20400;-72
2021/03/02 09:39:31;;;;;;;7.80;4.77;;;9.10;1.00;;;;;;5032592;28;20452;-72
2021/03/02 09:41:57;;;;;;;11.90;5.23;;;;;;;;;;5049909;28;20564;-75
2021/03/02 09:44:23;;;;;;;12.23;5.27;;;;;;;;;;5052681;28;20884;-76
2021/03/02 09:46:51;;;;;;;14.23;6.17;;;9.40;1.00;;;;;;5042271;28;21431;-76
2021/03/02 09:49:43;;;;;;;12.93;5.10;;;9.40;1.00;;;;;;5052629;28;20548;-72
2021/03/02 09:52:21;;;;;;;14.53;6.50;;;9.40;1.00;;;;;;5052706;28;20398;-76
2021/03/02 09:55:15;;;;;;;14.67;6.00;;;9.50;1.00;;;;;;5045984;28;20433;-75
2021/03/02 09:58:12;;;;;;;10.67;5.37;;;9.60;1.00;;;;;;5039310;28;20468;-72
2021/03/02 10:00:44;;;;;;;10.77;5.50;;;9.70;1.00;;;;;;5048105;28;20410;-72
2021/03/02 10:03:34;;;;;;;10.60;5.67;;;9.90;1.00;;;;;;5053125;28;20435;-72
2021/03/02 10:06:03;;;;;;;9.10;4.90;;;;;;;;;;5035328;28;20465;-72
2021/03/02 10:08:41;;;;;;;12.73;5.20;;;10.00;1.00;;;;;;5033537;28;20490;-72
2021/03/02 10:11:21;;;;;;;10.03;4.87;;;10.10;1.00;;;;;;5031783;28;20525;-75
2021/03/02 10:13:48;;;;;;;17.07;5.53;;;;;;;;;;5047286;28;20447;-75
2021/03/02 10:16:32;;;;;;;12.90;5.17;;;10.20;1.00;;;;;;5033172;28;20396;-75
2021/03/02 10:19:03;;;;;;;11.77;5.13;;;10.20;1.00;;;;;;5032987;28;20470;-75
2021/03/02 10:21:48;;;;;;;10.90;5.83;;;;;;;;;;5033114;28;20391;-75
2021/03/02 10:24:25;;;;;;;14.20;6.60;;;10.50;1.00;;;;;;5033164;28;20734;-75
2021/03/02 10:26:52;;;;;;;13.40;6.00;;;;;;;;;;5046424;28;20432;-75
2021/03/02 10:30:00;;;;;;;10.53;5.60;;;10.80;1.00;;;;;;5052989;28;20410;-80
2021/03/02 10:32:30;;;;;;;22.47;6.10;;;10.90;1.00;;;;;;5056280;28;20405;-79
2021/03/02 10:34:55;;;;;;;8.73;5.23;;;10.90;1.00;;;;;;5055486;28;20773;-79
2021/03/02 10:37:21;;;;;;;10.37;5.00;;;;;;;;;;5038833;28;20455;-79
2021/03/02 10:39:47;;;;;;;11.27;5.60;;;;;;;;;;5034821;28;20582;-80
2021/03/02 10:42:18;;;;;;;10.80;4.83;;;11.10;1.00;;;;;;5038559;28;20444;-78
2021/03/02 10:44:44;;;;;;;10.20;5.40;;;;;;;;;;5055814;28;20422;-80
2021/03/02 10:47:10;;;;;;;10.23;5.50;;;;;;;;;;5044644;28;21010;-80
2021/03/02 10:49:36;;;;;;;10.73;5.57;;;;;;;;;;5037202;28;20418;-79
2021/03/02 10:52:02;;;;;;;9.13;4.97;;;;;;;;;;5041486;28;20441;-81
2021/03/02 10:54:29;;;;;;;11.77;5.70;;;;;;;;;;5044118;28;20798;-79
2021/03/02 10:56:55;;;;;;;10.77;6.00;;;;;;;;;;5055401;28;20421;-72
2021/03/02 10:59:21;;;;;;;12.37;5.77;;;11.80;1.00;;;;;;5037579;28;20442;-71
2021/03/02 11:01:47;;;;;;;10.10;4.90;;;;;;;;;;5035112;28;20442;-71
2021/03/02 11:04:13;;;;;;;8.93;5.10;;;12.10;1.00;;;;;;5034693;28;20172;-71
2021/03/02 11:06:40;;;;;;;12.20;5.70;;;12.10;1.00;;;;;;5035536;28;20446;-71
2021/03/02 11:09:06;;;;;;;14.40;6.40;;;;;;;;;;5034894;28;20450;-71
2021/03/02 11:11:32;;;;;;;12.00;5.70;;;;;;;;;;5052643;28;20164;-71
2021/03/02 11:13:58;;;;;;;13.17;5.53;;;;;;;;;;5054842;28;20422;-71
2021/03/02 11:16:24;;;;;;;11.40;5.70;;;12.30;1.00;;;;;;5050428;28;20542;-71
2021/03/02 11:18:50;;;;;;;14.30;5.87;;;;;;;;;;5033719;28;20513;-71
2021/03/02 11:21:16;;;;;;;12.30;5.70;;;;;;;;;;5034606;28;20864;-71
2021/03/02 11:23:42;;;;;;;9.97;5.27;;;;;;;;;;5034593;28;20391;-71
2021/03/02 11:26:08;;;;;;;8.67;4.33;;;12.60;1.00;;;;;;5044250;28;20730;-78
2021/03/02 11:28:35;;;;;;;11.37;4.43;;;12.70;1.00;;;;;;5050387;28;20497;-80
2021/03/02 11:31:01;;;;;;;14.60;6.30;;;;;;;;;;5035446;28;20446;-78
2021/03/02 11:33:27;;;;;;;11.40;5.80;;;12.80;1.00;;;;;;5034911;28;20495;-79
2021/03/02 11:35:53;;;;;;;11.57;5.07;;;;;;;;;;5034816;28;20494;-79
2021/03/02 11:38:19;;;;;;;13.30;5.93;;;12.80;1.00;;;;;;5034083;28;20447;-78
2021/03/02 11:40:45;;;;;;;11.73;5.70;;;12.90;1.00;;;;;;5034821;28;20377;-78
2021/03/02 11:43:11;;;;;;;14.63;6.83;;;;;;;;;;5033735;28;20185;-79
2021/03/02 11:45:37;;;;;;;9.13;5.37;;;;;;;;;;5035408;28;20184;-79
2021/03/02 11:48:05;;;;;;;12.80;5.90;;;13.00;1.00;;;;;;5039996;28;20434;-78
2021/03/02 11:50:31;;;;;;;14.27;6.03;;;13.10;1.00;;;;;;5033737;28;20923;-79
2021/03/02 11:52:57;;;;;;;15.63;6.33;;;13.20;1.00;;;;;;5039250;28;20423;-79
2021/03/02 11:55:23;;;;;;;10.23;5.57;;;;;;;;;;5034433;28;20733;-79
2021/03/02 11:57:49;;;;;;;13.70;5.90;;;13.20;1.00;;;;;;5035086;28;20192;-78
2021/03/02 12:00:17;;;;;;;15.10;5.53;;;13.30;1.00;;;;;;5034401;28;20400;-75
2021/03/02 12:02:44;;;;;;;12.07;5.53;;;13.30;1.00;;;;;;5034342;28;20157;-75
2021/03/02 12:05:10;;;;;;;10.67;5.43;;;13.50;1.00;;;;;;5034607;28;20453;-75
2021/03/02 12:07:36;;;;;;;8.27;5.10;;;13.60;1.00;;;;;;5037777;28;20631;-75
2021/03/02 12:10:04;;;;;;;14.10;5.90;;;13.60;1.00;;;;;;5034287;28;20770;-74
2021/03/02 12:12:29;;;;;;;12.90;5.93;;;13.70;1.00;;;;;;5034550;28;20180;-72
2021/03/02 12:14:55;;;;;;;16.50;5.97;;;;;;;;;;5046886;28;20906;-72
2021/03/02 12:17:21;;;;;;;9.47;5.17;;;13.80;1.00;;;;;;5054022;28;20196;-72
2021/03/02 12:19:47;;;;;;;13.27;5.97;;;;;;;;;;5047729;28;20426;-72
2021/03/02 12:22:13;;;;;;;13.10;6.37;;;14.00;1.00;;;;;;5053953;28;20168;-72
2021/03/02 12:24:38;;;;;;;9.80;5.20;;;14.00;1.00;;;;;;5046796;28;20482;-72
2021/03/02 12:27:04;;;;;;;10.53;5.47;;;14.20;1.00;;;;;;5034197;28;20172;-74
2021/03/02 12:29:30;;;;;;;10.83;5.47;;;;;;;;;;5043377;28;20188;-74
2021/03/02 12:31:56;;;;;;;14.47;5.80;;;14.10;1.00;;;;;;5044867;28;20413;-78
2021/03/02 12:34:22;;;;;;;11.73;5.37;;;14.00;1.00;;;;;;5033490;28;20461;-76
2021/03/02 12:36:48;;;;;;;11.03;5.53;;;14.10;1.00;;;;;;5034916;28;20184;-76
2021/03/02 12:39:18;;;;;;;12.43;6.23;;;14.20;1.00;;;;;;5033717;28;20453;-75
2021/03/02 12:41:43;;;;;;;14.60;5.70;;;14.30;1.00;;;;;;5033788;28;20629;-72
2021/03/02 12:44:09;;;;;;;12.13;5.90;;;;;;;;;;5036899;28;20433;-72
2021/03/02 12:46:35;;;;;;;9.53;5.60;;;;;;;;;;5042576;28;20180;-72
2021/03/02 12:49:01;;;;;;;14.37;6.73;;;;;;;;;;5046484;28;20942;-72
2021/03/02 12:51:27;;;;;;;14.00;5.63;;;14.60;1.00;;;;;;5035831;28;20423;-72
2021/03/02 12:53:53;;;;;;;8.33;4.83;;;;;;;;;;5033078;28;20399;-72
2021/03/02 12:56:19;;;;;;;13.63;5.47;;;14.70;1.00;;;;;;5033391;28;20160;-72
2021/03/02 12:58:45;;;;;;;11.43;5.40;;;14.70;1.00;;;;;;5034096;28;20847;-75
2021/03/02 13:01:11;;;;;;;11.90;6.10;;;;;;;;;;5031917;28;20409;-75
2021/03/02 13:03:41;;;;;;;10.67;4.93;;;14.90;1.00;;;;;;5033833;28;20243;-75
2021/03/02 13:06:07;;;;;;;12.70;6.80;;;14.90;1.00;;;;;;5036953;28;20473;-75
2021/03/02 13:08:33;;;;;;;12.97;6.00;;;15.00;1.00;;;;;;5043646;28;20518;-75
2021/03/02 13:11:02;;;;;;;10.73;5.00;;;14.90;1.00;;;;;;5033244;28;20494;-75
2021/03/02 13:13:28;;;;;;;15.67;5.97;;;14.90;1.00;;;;;;5034173;28;20764;-72
2021/03/02 13:15:54;;;;;;;12.93;5.70;;;;;;;;;;5052856;28;20408;-72
2021/03/02 13:18:20;;;;;;;15.37;6.30;;;;;;;;;;5052485;28;20679;-72
2021/03/02 13:20:47;;;;;;;17.23;6.13;;;15.00;1.00;;;;;;5052976;28;20390;-72
2021/03/02 13:23:13;;;;;;;11.10;5.60;;;15.20;1.00;;;;;;5052803;28;20369;-72
2021/03/02 13:25:38;;;;;;;9.50;4.93;;;15.10;1.00;;;;;;5046950;28;20772;-72
2021/03/02 13:28:06;;;;;;;11.87;4.87;;;15.00;1.00;;;;;;5032972;28;20396;-75
2021/03/02 13:30:31;;;;;;;12.67;5.93;;;15.10;1.00;;;;;;5032939;28;20206;-75
2021/03/02 13:33:00;;;;;;;11.43;5.70;;;15.20;1.00;;;;;;5032783;28;20400;-75
2021/03/02 13:35:26;;;;;;;12.30;5.70;;;;;;;;;;5032709;28;20373;-75
2021/03/02 13:37:53;;;;;;;11.90;5.90;;;15.40;1.00;;;;;;5032793;28;20577;-75
2021/03/02 13:40:21;;;;;;;20.00;5.80;;;15.40;1.00;;;;;;5032848;28;20403;-75